sensor_id;sensor_type;location;lat;lon;timestamp;pressure;altitude;pressure_sealevel;temperature;humidity
30081;BME280;16902;50.816;12.828;2022-07-22T00:02:06;98096.66;;;15.32;100.00
30081;BME280;16902;50.816;12.828;2022-07-22T00:07:08;98088.56;;;15.27;100.00
30081;BME280;16902;50.816;12.828;2022-07-22T00:12:10;98094.63;;;15.21;100.00
30081;BME280;16902;50.816;12.828;2022-07-22T00:17:12;98088.38;;;15.15;100.00
30081;BME280;16902;50.816;12.828;2022-07-22T00:22:14;98092.63;;;15.09;100.00
30081;BME280;16902;50.816;12.828;2022-07-22T00:27:16;98090.97;;;15.08;100.00
30081;BME280;16902;50.816;12.828;2022-07-22T00:32:18;98095.22;;;15.03;100.00
30081;BME280;16902;50.816;12.828;2022-07-22T00:37:20;98093.78;;;14.94;100.00
30081;BME280;16902;50.816;12.828;2022-07-22T00:42:21;98099.84;;;14.94;100.00
30081;BME280;16902;50.816;12.828;2022-07-22T00:47:24;98091.16;;;14.80;100.00
30081;BME280;16902;50.816;12.828;2022-07-22T00:52:26;98091.16;;;14.80;100.00
30081;BME280;16902;50.816;12.828;2022-07-22T00:57:28;98097.59;;;14.78;100.00
30081;BME280;16902;50.816;12.828;2022-07-22T01:02:30;98095.75;;;14.78;100.00
30081;BME280;16902;50.816;12.828;2022-07-22T01:07:32;98097.78;;;14.76;100.00
30081;BME280;16902;50.816;12.828;2022-07-22T01:12:34;98104.66;;;14.77;100.00
30081;BME280;16902;50.816;12.828;2022-07-22T01:17:36;98095.38;;;14.75;100.00
30081;BME280;16902;50.816;12.828;2022-07-22T01:22:39;98094.75;;;14.66;100.00
30081;BME280;16902;50.816;12.828;2022-07-22T01:27:41;98091.31;;;14.65;100.00
30081;BME280;16902;50.816;12.828;2022-07-22T01:32:43;98082.03;;;14.63;100.00
30081;BME280;16902;50.816;12.828;2022-07-22T01:37:45;98080.41;;;14.55;100.00
30081;BME280;16902;50.816;12.828;2022-07-22T01:42:47;98088.44;;;14.54;100.00
30081;BME280;16902;50.816;12.828;2022-07-22T01:47:49;98087.25;;;14.56;100.00
30081;BME280;16902;50.816;12.828;2022-07-22T01:52:51;98080.16;;;14.50;100.00
30081;BME280;16902;50.816;12.828;2022-07-22T01:57:53;98075.31;;;14.47;100.00
30081;BME280;16902;50.816;12.828;2022-07-22T02:03:01;98085.34;;;14.37;100.00
30081;BME280;16902;50.816;12.828;2022-07-22T02:08:04;98083.31;;;14.32;100.00
30081;BME280;16902;50.816;12.828;2022-07-22T02:13:26;98078.22;;;14.24;100.00
30081;BME280;16902;50.816;12.828;2022-07-22T02:18:28;98074.19;;;14.22;100.00
30081;BME280;16902;50.816;12.828;2022-07-22T02:23:30;98087.44;;;14.13;100.00
30081;BME280;16902;50.816;12.828;2022-07-22T02:28:32;98089.22;;;14.06;100.00
30081;BME280;16902;50.816;12.828;2022-07-22T02:33:35;98090.00;;;14.00;100.00
30081;BME280;16902;50.816;12.828;2022-07-22T02:38:38;98085.75;;;13.93;100.00
30081;BME280;16902;50.816;12.828;2022-07-22T02:43:40;98091.50;;;13.81;100.00
30081;BME280;16902;50.816;12.828;2022-07-22T02:48:42;98092.28;;;13.82;100.00
30081;BME280;16902;50.816;12.828;2022-07-22T02:53:47;98094.09;;;13.81;100.00
30081;BME280;16902;50.816;12.828;2022-07-22T02:58:49;98093.66;;;13.78;100.00
30081;BME280;16902;50.816;12.828;2022-07-22T03:03:54;98089.22;;;13.72;100.00
30081;BME280;16902;50.816;12.828;2022-07-22T03:08:58;98103.66;;;13.68;100.00
30081;BME280;16902;50.816;12.828;2022-07-22T03:14:02;98114.94;;;13.68;100.00
30081;BME280;16902;50.816;12.828;2022-07-22T03:19:03;98109.47;;;13.63;100.00
30081;BME280;16902;50.816;12.828;2022-07-22T03:24:06;98103.53;;;13.76;100.00
30081;BME280;16902;50.816;12.828;2022-07-22T03:29:08;98107.53;;;13.72;100.00
30081;BME280;16902;50.816;12.828;2022-07-22T03:34:10;98113.81;;;13.77;100.00
30081;BME280;16902;50.816;12.828;2022-07-22T03:39:16;98108.34;;;13.72;100.00
30081;BME280;16902;50.816;12.828;2022-07-22T03:44:18;98112.63;;;13.80;100.00
30081;BME280;16902;50.816;12.828;2022-07-22T03:49:20;98118.69;;;13.87;100.00
30081;BME280;16902;50.816;12.828;2022-07-22T03:54:22;98113.47;;;13.87;100.00
30081;BME280;16902;50.816;12.828;2022-07-22T03:59:24;98110.03;;;13.86;100.00
30081;BME280;16902;50.816;12.828;2022-07-22T04:04:27;98114.28;;;13.87;100.00
30081;BME280;16902;50.816;12.828;2022-07-22T04:09:29;98128.59;;;13.92;100.00
30081;BME280;16902;50.816;12.828;2022-07-22T04:14:31;98125.47;;;14.03;100.00
30081;BME280;16902;50.816;12.828;2022-07-22T04:19:33;98120.09;;;14.18;100.00
30081;BME280;16902;50.816;12.828;2022-07-22T04:24:44;98129.25;;;14.35;100.00
30081;BME280;16902;50.816;12.828;2022-07-22T04:29:46;98130.31;;;14.47;100.00
30081;BME280;16902;50.816;12.828;2022-07-22T04:34:49;98121.34;;;14.63;100.00
30081;BME280;16902;50.816;12.828;2022-07-22T04:39:50;98120.97;;;14.73;100.00
30081;BME280;16902;50.816;12.828;2022-07-22T04:44:53;98116.78;;;14.85;100.00
30081;BME280;16902;50.816;12.828;2022-07-22T04:49:56;98118.41;;;14.99;100.00
30081;BME280;16902;50.816;12.828;2022-07-22T04:54:58;98126.50;;;15.17;100.00
30081;BME280;16902;50.816;12.828;2022-07-22T05:00:00;98122.09;;;15.38;100.00
30081;BME280;16902;50.816;12.828;2022-07-22T05:05:05;98119.47;;;15.58;100.00
30081;BME280;16902;50.816;12.828;2022-07-22T05:10:08;98111.38;;;15.79;100.00
30081;BME280;16902;50.816;12.828;2022-07-22T05:15:10;98107.94;;;15.99;100.00
30081;BME280;16902;50.816;12.828;2022-07-22T05:20:14;98122.63;;;16.26;100.00
30081;BME280;16902;50.816;12.828;2022-07-22T05:25:18;98114.72;;;16.84;100.00
30081;BME280;16902;50.816;12.828;2022-07-22T05:30:20;98119.31;;;17.20;100.00
30081;BME280;16902;50.816;12.828;2022-07-22T05:35:25;98116.34;;;17.67;100.00
30081;BME280;16902;50.816;12.828;2022-07-22T05:40:27;98117.94;;;17.93;100.00
30081;BME280;16902;50.816;12.828;2022-07-22T05:45:30;98116.38;;;18.10;100.00
30081;BME280;16902;50.816;12.828;2022-07-22T05:50:32;98122.81;;;18.14;100.00
30081;BME280;16902;50.816;12.828;2022-07-22T05:55:34;98121.69;;;18.22;100.00
30081;BME280;16902;50.816;12.828;2022-07-22T06:00:36;98126.81;;;18.35;100.00
30081;BME280;16902;50.816;12.828;2022-07-22T06:05:38;98119.34;;;18.69;100.00
30081;BME280;16902;50.816;12.828;2022-07-22T06:10:43;98117.63;;;18.93;100.00
30081;BME280;16902;50.816;12.828;2022-07-22T06:15:45;98118.00;;;19.08;100.00
30081;BME280;16902;50.816;12.828;2022-07-22T06:20:47;98129.66;;;19.31;100.00
30081;BME280;16902;50.816;12.828;2022-07-22T06:25:49;98131.38;;;19.48;100.00
30081;BME280;16902;50.816;12.828;2022-07-22T06:30:58;98133.69;;;19.45;100.00
30081;BME280;16902;50.816;12.828;2022-07-22T06:36:02;98130.34;;;19.26;100.00
30081;BME280;16902;50.816;12.828;2022-07-22T06:41:05;98125.28;;;19.24;100.00
30081;BME280;16902;50.816;12.828;2022-07-22T06:46:31;98126.66;;;19.39;100.00
30081;BME280;16902;50.816;12.828;2022-07-22T06:51:33;98129.28;;;19.81;100.00
30081;BME280;16902;50.816;12.828;2022-07-22T06:56:35;98123.31;;;19.97;100.00
30081;BME280;16902;50.816;12.828;2022-07-22T07:01:39;98125.25;;;20.13;100.00
30081;BME280;16902;50.816;12.828;2022-07-22T07:06:41;98128.75;;;20.31;100.00
30081;BME280;16902;50.816;12.828;2022-07-22T07:11:51;98126.47;;;20.34;100.00
30081;BME280;16902;50.816;12.828;2022-07-22T07:17:12;98121.31;;;20.27;100.00
30081;BME280;16902;50.816;12.828;2022-07-22T07:22:17;98130.25;;;20.38;100.00
30081;BME280;16902;50.816;12.828;2022-07-22T07:27:19;98123.00;;;20.34;100.00
30081;BME280;16902;50.816;12.828;2022-07-22T07:32:24;98118.94;;;20.66;100.00
30081;BME280;16902;50.816;12.828;2022-07-22T07:37:26;98120.09;;;20.87;100.00
30081;BME280;16902;50.816;12.828;2022-07-22T07:42:29;98123.78;;;21.15;100.00
30081;BME280;16902;50.816;12.828;2022-07-22T07:47:30;98120.38;;;21.31;100.00
30081;BME280;16902;50.816;12.828;2022-07-22T07:52:40;98118.84;;;21.35;100.00
30081;BME280;16902;50.816;12.828;2022-07-22T07:57:52;98120.28;;;21.60;100.00
30081;BME280;16902;50.816;12.828;2022-07-22T08:02:55;98117.72;;;21.81;100.00
30081;BME280;16902;50.816;12.828;2022-07-22T08:08:00;98117.34;;;21.95;100.00
30081;BME280;16902;50.816;12.828;2022-07-22T08:13:02;98111.84;;;21.96;100.00
30081;BME280;16902;50.816;12.828;2022-07-22T08:18:18;98115.41;;;22.07;100.00
30081;BME280;16902;50.816;12.828;2022-07-22T08:23:20;98115.66;;;22.05;100.00
30081;BME280;16902;50.816;12.828;2022-07-22T08:28:22;98114.59;;;22.23;100.00
30081;BME280;16902;50.816;12.828;2022-07-22T08:33:24;98106.97;;;22.76;100.00
30081;BME280;16902;50.816;12.828;2022-07-22T08:38:27;98107.84;;;23.36;100.00
30081;BME280;16902;50.816;12.828;2022-07-22T08:43:31;98113.00;;;23.52;100.00
30081;BME280;16902;50.816;12.828;2022-07-22T08:48:39;98111.53;;;23.34;100.00
30081;BME280;16902;50.816;12.828;2022-07-22T08:53:59;98121.13;;;23.36;100.00
30081;BME280;16902;50.816;12.828;2022-07-22T08:59:04;98117.75;;;23.82;100.00
30081;BME280;16902;50.816;12.828;2022-07-22T09:04:06;98108.31;;;24.65;100.00
30081;BME280;16902;50.816;12.828;2022-07-22T09:09:09;98101.78;;;25.08;100.00
30081;BME280;16902;50.816;12.828;2022-07-22T09:14:48;98103.41;;;25.19;100.00
30081;BME280;16902;50.816;12.828;2022-07-22T09:20:18;98106.69;;;24.53;100.00
30081;BME280;16902;50.816;12.828;2022-07-22T09:25:46;98106.78;;;24.16;100.00
30081;BME280;16902;50.816;12.828;2022-07-22T09:31:02;98105.53;;;25.58;100.00
30081;BME280;16902;50.816;12.828;2022-07-22T09:36:09;98104.03;;;26.27;100.00
30081;BME280;16902;50.816;12.828;2022-07-22T09:41:10;98105.75;;;25.61;100.00
30081;BME280;16902;50.816;12.828;2022-07-22T09:46:13;98105.50;;;25.48;100.00
30081;BME280;16902;50.816;12.828;2022-07-22T09:51:41;98095.63;;;25.89;100.00
30081;BME280;16902;50.816;12.828;2022-07-22T09:57:03;98093.09;;;26.28;100.00
30081;BME280;16902;50.816;12.828;2022-07-22T10:02:06;98096.44;;;25.69;100.00
30081;BME280;16902;50.816;12.828;2022-07-22T10:07:09;98093.28;;;26.52;100.00
30081;BME280;16902;50.816;12.828;2022-07-22T10:12:14;98095.63;;;25.89;100.00
30081;BME280;16902;50.816;12.828;2022-07-22T10:17:17;98091.16;;;26.39;100.00
30081;BME280;16902;50.816;12.828;2022-07-22T10:38:06;98090.22;;;28.06;100.00
30081;BME280;16902;50.816;12.828;2022-07-22T10:43:09;98098.44;;;28.38;100.00
30081;BME280;16902;50.816;12.828;2022-07-22T10:48:19;98096.00;;;27.89;100.00
30081;BME280;16902;50.816;12.828;2022-07-22T10:53:39;98094.06;;;28.18;100.00
30081;BME280;16902;50.816;12.828;2022-07-22T10:58:44;98088.38;;;28.25;100.00
30081;BME280;16902;50.816;12.828;2022-07-22T11:03:48;98090.56;;;29.55;100.00
30081;BME280;16902;50.816;12.828;2022-07-22T11:09:01;98078.94;;;29.74;100.00
30081;BME280;16902;50.816;12.828;2022-07-22T11:14:15;98072.41;;;30.49;91.34
30081;BME280;16902;50.816;12.828;2022-07-22T11:19:25;98070.03;;;32.21;88.19
30081;BME280;16902;50.816;12.828;2022-07-22T11:24:28;98060.34;;;34.57;67.04
30081;BME280;16902;50.816;12.828;2022-07-22T11:29:38;98057.53;;;34.86;58.69
30081;BME280;16902;50.816;12.828;2022-07-22T11:34:44;98048.97;;;34.84;59.23
30081;BME280;16902;50.816;12.828;2022-07-22T11:39:47;98054.16;;;36.94;55.59
30081;BME280;16902;50.816;12.828;2022-07-22T11:44:49;98053.31;;;38.48;52.00
30081;BME280;16902;50.816;12.828;2022-07-22T11:49:53;98046.59;;;39.88;43.56
30081;BME280;16902;50.816;12.828;2022-07-22T11:54:55;98036.63;;;39.50;43.76
30081;BME280;16902;50.816;12.828;2022-07-22T12:00:06;98037.56;;;40.64;41.39
30081;BME280;16902;50.816;12.828;2022-07-22T12:05:12;98043.66;;;40.23;40.43
30081;BME280;16902;50.816;12.828;2022-07-22T12:10:34;98045.63;;;40.87;40.14
30081;BME280;16902;50.816;12.828;2022-07-22T12:15:36;98035.56;;;42.38;37.03
30081;BME280;16902;50.816;12.828;2022-07-22T12:20:49;98033.19;;;40.93;37.35
30081;BME280;16902;50.816;12.828;2022-07-22T12:25:57;98022.84;;;39.89;38.93
30081;BME280;16902;50.816;12.828;2022-07-22T12:31:00;98032.31;;;43.13;36.44
30081;BME280;16902;50.816;12.828;2022-07-22T12:36:03;98022.22;;;43.67;33.98
30081;BME280;16902;50.816;12.828;2022-07-22T12:41:27;98015.28;;;41.80;36.50
30081;BME280;16902;50.816;12.828;2022-07-22T12:46:31;98009.03;;;42.46;36.58
30081;BME280;16902;50.816;12.828;2022-07-22T12:51:33;98013.66;;;45.40;32.35
30081;BME280;16902;50.816;12.828;2022-07-22T12:56:34;98012.31;;;45.59;30.75
30081;BME280;16902;50.816;12.828;2022-07-22T13:01:37;98007.31;;;45.92;30.93
30081;BME280;16902;50.816;12.828;2022-07-22T13:06:39;97993.97;;;43.66;31.09
30081;BME280;16902;50.816;12.828;2022-07-22T13:11:41;97991.22;;;43.41;33.13
30081;BME280;16902;50.816;12.828;2022-07-22T13:16:47;97986.56;;;43.38;32.39
30081;BME280;16902;50.816;12.828;2022-07-22T13:21:49;97972.81;;;43.31;32.72
30081;BME280;16902;50.816;12.828;2022-07-22T13:26:51;97976.97;;;42.53;31.90
30081;BME280;16902;50.816;12.828;2022-07-22T13:31:52;97968.84;;;42.82;32.52
30081;BME280;16902;50.816;12.828;2022-07-22T13:37:14;97967.84;;;44.64;30.92
30081;BME280;16902;50.816;12.828;2022-07-22T13:42:17;97973.63;;;46.18;28.66
30081;BME280;16902;50.816;12.828;2022-07-22T13:47:20;97969.53;;;48.25;28.26
30081;BME280;16902;50.816;12.828;2022-07-22T13:52:22;97965.75;;;48.35;28.27
30081;BME280;16902;50.816;12.828;2022-07-22T13:57:24;97965.75;;;49.69;26.39
30081;BME280;16902;50.816;12.828;2022-07-22T14:02:26;97958.09;;;51.21;24.86
30081;BME280;16902;50.816;12.828;2022-07-22T14:07:28;97962.91;;;50.95;25.17
30081;BME280;16902;50.816;12.828;2022-07-22T14:12:29;97954.84;;;50.87;25.21
30081;BME280;16902;50.816;12.828;2022-07-22T14:17:31;97949.94;;;49.70;25.95
30081;BME280;16902;50.816;12.828;2022-07-22T14:22:33;97946.50;;;51.35;24.56
30081;BME280;16902;50.816;12.828;2022-07-22T14:27:35;97944.38;;;49.86;25.54
30081;BME280;16902;50.816;12.828;2022-07-22T14:32:36;97943.03;;;51.22;24.65
30081;BME280;16902;50.816;12.828;2022-07-22T14:37:38;97935.59;;;47.18;26.57
30081;BME280;16902;50.816;12.828;2022-07-22T14:42:40;97932.44;;;46.96;26.72
30081;BME280;16902;50.816;12.828;2022-07-22T14:47:41;97934.09;;;48.92;25.27
30081;BME280;16902;50.816;12.828;2022-07-22T14:52:43;97922.13;;;45.40;27.58
30081;BME280;16902;50.816;12.828;2022-07-22T14:57:45;97906.91;;;44.79;29.56
30081;BME280;16902;50.816;12.828;2022-07-22T15:02:46;97913.72;;;46.26;28.31
30081;BME280;16902;50.816;12.828;2022-07-22T15:07:48;97923.66;;;49.00;25.60
30081;BME280;16902;50.816;12.828;2022-07-22T15:12:50;97912.88;;;46.59;27.48
30081;BME280;16902;50.816;12.828;2022-07-22T15:17:52;97901.13;;;43.65;29.91
30081;BME280;16902;50.816;12.828;2022-07-22T15:22:53;97909.00;;;45.58;28.55
30081;BME280;16902;50.816;12.828;2022-07-22T15:27:55;97906.59;;;43.72;29.86
30081;BME280;16902;50.816;12.828;2022-07-22T15:33:17;97888.56;;;41.03;32.95
30081;BME280;16902;50.816;12.828;2022-07-22T15:38:28;97869.69;;;36.66;38.93
30081;BME280;16902;50.816;12.828;2022-07-22T15:43:30;97861.97;;;34.73;42.27
30081;BME280;16902;50.816;12.828;2022-07-22T15:48:32;97861.25;;;33.09;45.96
30081;BME280;16902;50.816;12.828;2022-07-22T15:53:34;97852.41;;;31.18;52.87
30081;BME280;16902;50.816;12.828;2022-07-22T15:58:37;97844.84;;;30.80;54.09
30081;BME280;16902;50.816;12.828;2022-07-22T16:04:17;97841.19;;;29.73;60.68
30081;BME280;16902;50.816;12.828;2022-07-22T16:09:19;97840.56;;;29.26;64.21
30081;BME280;16902;50.816;12.828;2022-07-22T16:14:27;97835.38;;;29.43;63.53
30081;BME280;16902;50.816;12.828;2022-07-22T16:19:30;97834.47;;;28.92;64.33
30081;BME280;16902;50.816;12.828;2022-07-22T16:24:32;97827.50;;;28.64;64.28
30081;BME280;16902;50.816;12.828;2022-07-22T16:29:34;97830.91;;;28.37;71.54
30081;BME280;16902;50.816;12.828;2022-07-22T16:34:36;97826.66;;;27.41;74.44
30081;BME280;16902;50.816;12.828;2022-07-22T16:39:38;97833.06;;;27.16;75.51
30081;BME280;16902;50.816;12.828;2022-07-22T16:44:40;97831.00;;;27.13;77.66
30081;BME280;16902;50.816;12.828;2022-07-22T16:49:42;97829.06;;;27.19;76.93
30081;BME280;16902;50.816;12.828;2022-07-22T16:54:44;97824.47;;;26.96;78.22
30081;BME280;16902;50.816;12.828;2022-07-22T16:59:46;97820.91;;;26.52;78.76
30081;BME280;16902;50.816;12.828;2022-07-22T17:04:48;97815.13;;;26.40;80.64
30081;BME280;16902;50.816;12.828;2022-07-22T17:09:49;97814.81;;;26.47;81.55
30081;BME280;16902;50.816;12.828;2022-07-22T17:14:51;97808.66;;;26.51;79.52
30081;BME280;16902;50.816;12.828;2022-07-22T17:19:53;97812.72;;;26.44;81.49
30081;BME280;16902;50.816;12.828;2022-07-22T17:24:55;97805.50;;;26.10;83.71
30081;BME280;16902;50.816;12.828;2022-07-22T17:29:57;97805.13;;;25.87;86.53
30081;BME280;16902;50.816;12.828;2022-07-22T17:34:59;97806.81;;;25.73;89.03
30081;BME280;16902;50.816;12.828;2022-07-22T17:40:02;97798.09;;;25.52;92.33
30081;BME280;16902;50.816;12.828;2022-07-22T17:45:05;97798.47;;;25.35;92.20
30081;BME280;16902;50.816;12.828;2022-07-22T17:50:07;97800.44;;;25.15;99.22
30081;BME280;16902;50.816;12.828;2022-07-22T17:55:11;97802.91;;;24.85;100.00
30081;BME280;16902;50.816;12.828;2022-07-22T18:00:13;97800.25;;;24.70;100.00
30081;BME280;16902;50.816;12.828;2022-07-22T18:05:15;97796.56;;;24.56;100.00
30081;BME280;16902;50.816;12.828;2022-07-22T18:10:18;97790.19;;;24.36;100.00
30081;BME280;16902;50.816;12.828;2022-07-22T18:15:20;97797.91;;;24.28;100.00
30081;BME280;16902;50.816;12.828;2022-07-22T18:20:22;97797.38;;;24.16;100.00
30081;BME280;16902;50.816;12.828;2022-07-22T18:25:24;97796.59;;;24.05;100.00
30081;BME280;16902;50.816;12.828;2022-07-22T18:30:26;97799.53;;;23.98;100.00
30081;BME280;16902;50.816;12.828;2022-07-22T18:35:28;97798.44;;;23.84;100.00
30081;BME280;16902;50.816;12.828;2022-07-22T18:40:30;97809.81;;;23.64;100.00
30081;BME280;16902;50.816;12.828;2022-07-22T18:45:32;97806.78;;;23.40;100.00
30081;BME280;16902;50.816;12.828;2022-07-22T18:50:34;97812.84;;;23.20;100.00
30081;BME280;16902;50.816;12.828;2022-07-22T18:55:37;97803.72;;;23.01;100.00
30081;BME280;16902;50.816;12.828;2022-07-22T19:00:39;97818.16;;;22.73;100.00
30081;BME280;16902;50.816;12.828;2022-07-22T19:05:41;97823.59;;;22.51;100.00
30081;BME280;16902;50.816;12.828;2022-07-22T19:10:43;97819.94;;;22.25;100.00
30081;BME280;16902;50.816;12.828;2022-07-22T19:15:45;97831.03;;;21.95;100.00
30081;BME280;16902;50.816;12.828;2022-07-22T19:20:47;97838.50;;;21.71;100.00
30081;BME280;16902;50.816;12.828;2022-07-22T19:25:49;97836.25;;;21.58;100.00
30081;BME280;16902;50.816;12.828;2022-07-22T19:30:51;97843.28;;;21.47;100.00
30081;BME280;16902;50.816;12.828;2022-07-22T19:35:52;97853.09;;;21.29;100.00
30081;BME280;16902;50.816;12.828;2022-07-22T19:40:54;97854.44;;;21.10;100.00
30081;BME280;16902;50.816;12.828;2022-07-22T19:45:56;97851.59;;;20.95;100.00
30081;BME280;16902;50.816;12.828;2022-07-22T19:50:59;97860.19;;;20.85;100.00
30081;BME280;16902;50.816;12.828;2022-07-22T19:56:00;97858.22;;;20.75;100.00
30081;BME280;16902;50.816;12.828;2022-07-22T20:01:03;97859.16;;;20.69;100.00
30081;BME280;16902;50.816;12.828;2022-07-22T20:06:05;97870.09;;;20.56;100.00
30081;BME280;16902;50.816;12.828;2022-07-22T20:11:07;97876.00;;;20.46;100.00
30081;BME280;16902;50.816;12.828;2022-07-22T20:16:09;97888.56;;;20.39;100.00
30081;BME280;16902;50.816;12.828;2022-07-22T20:21:11;97890.78;;;20.31;100.00
30081;BME280;16902;50.816;12.828;2022-07-22T20:26:14;97913.69;;;20.25;100.00
30081;BME280;16902;50.816;12.828;2022-07-22T20:31:16;97921.53;;;20.20;100.00
30081;BME280;16902;50.816;12.828;2022-07-22T20:36:20;97920.00;;;20.07;100.00
30081;BME280;16902;50.816;12.828;2022-07-22T20:41:22;97921.31;;;19.93;100.00
30081;BME280;16902;50.816;12.828;2022-07-22T20:46:23;97930.66;;;19.84;100.00
30081;BME280;16902;50.816;12.828;2022-07-22T20:51:26;97943.97;;;19.77;100.00
30081;BME280;16902;50.816;12.828;2022-07-22T20:56:28;97942.44;;;19.64;100.00
30081;BME280;16902;50.816;12.828;2022-07-22T21:01:31;97939.88;;;19.58;100.00
30081;BME280;16902;50.816;12.828;2022-07-22T21:06:33;97944.13;;;19.47;100.00
30081;BME280;16902;50.816;12.828;2022-07-22T21:11:34;97949.31;;;19.65;100.00
30081;BME280;16902;50.816;12.828;2022-07-22T21:16:36;97949.31;;;19.65;100.00
30081;BME280;16902;50.816;12.828;2022-07-22T21:21:38;97950.13;;;19.54;100.00
30081;BME280;16902;50.816;12.828;2022-07-22T21:26:40;97954.25;;;19.38;100.00
30081;BME280;16902;50.816;12.828;2022-07-22T21:31:41;97960.00;;;19.23;100.00
30081;BME280;16902;50.816;12.828;2022-07-22T21:36:44;97957.25;;;19.07;100.00
30081;BME280;16902;50.816;12.828;2022-07-22T21:41:46;97950.81;;;18.91;100.00
30081;BME280;16902;50.816;12.828;2022-07-22T21:46:47;97947.03;;;18.87;100.00
30081;BME280;16902;50.816;12.828;2022-07-22T21:51:49;97937.56;;;18.67;100.00
30081;BME280;16902;50.816;12.828;2022-07-22T21:56:51;97947.28;;;18.55;100.00
30081;BME280;16902;50.816;12.828;2022-07-22T22:01:58;97958.97;;;18.47;100.00
30081;BME280;16902;50.816;12.828;2022-07-22T22:07:00;97958.72;;;18.37;100.00
30081;BME280;16902;50.816;12.828;2022-07-22T22:12:02;97948.34;;;18.24;100.00
30081;BME280;16902;50.816;12.828;2022-07-22T22:17:04;97938.00;;;18.11;100.00
30081;BME280;16902;50.816;12.828;2022-07-22T22:22:06;97928.66;;;17.96;100.00
30081;BME280;16902;50.816;12.828;2022-07-22T22:27:08;97914.03;;;17.82;100.00
30081;BME280;16902;50.816;12.828;2022-07-22T22:32:11;97883.84;;;17.66;100.00
30081;BME280;16902;50.816;12.828;2022-07-22T22:37:12;97885.00;;;17.52;100.00
30081;BME280;16902;50.816;12.828;2022-07-22T22:42:14;97888.16;;;17.42;100.00
30081;BME280;16902;50.816;12.828;2022-07-22T22:47:16;97892.91;;;17.34;100.00
30081;BME280;16902;50.816;12.828;2022-07-22T22:52:17;97885.53;;;17.24;100.00
30081;BME280;16902;50.816;12.828;2022-07-22T22:57:19;97869.44;;;17.14;100.00
30081;BME280;16902;50.816;12.828;2022-07-22T23:02:20;97867.47;;;17.09;100.00
30081;BME280;16902;50.816;12.828;2022-07-22T23:07:22;97869.56;;;17.01;100.00
30081;BME280;16902;50.816;12.828;2022-07-22T23:12:24;97869.97;;;17.04;100.00
30081;BME280;16902;50.816;12.828;2022-07-22T23:17:25;97868.56;;;17.02;100.00
30081;BME280;16902;50.816;12.828;2022-07-22T23:22:27;97875.06;;;16.99;100.00
30081;BME280;16902;50.816;12.828;2022-07-22T23:27:29;97871.34;;;16.88;100.00
30081;BME280;16902;50.816;12.828;2022-07-22T23:32:31;97870.00;;;16.79;100.00
30081;BME280;16902;50.816;12.828;2022-07-22T23:37:32;97864.97;;;16.71;100.00
30081;BME280;16902;50.816;12.828;2022-07-22T23:42:34;97875.75;;;16.63;100.00
30081;BME280;16902;50.816;12.828;2022-07-22T23:47:36;97874.53;;;16.65;100.00
30081;BME280;16902;50.816;12.828;2022-07-22T23:52:37;97880.38;;;16.67;100.00
30081;BME280;16902;50.816;12.828;2022-07-22T23:57:39;97882.44;;;16.65;100.00
